sensor_id;sensor_type;location;lat;lon;timestamp;P1;durP1;ratioP1;P2;durP2;ratioP2
75246;SDS011;63844;50.042;19.224;2023-06-14T00:04:46;7.90;;;4.50;;
75246;SDS011;63844;50.042;19.224;2023-06-14T00:07:14;9.20;;;5.20;;
75246;SDS011;63844;50.042;19.224;2023-06-14T00:09:42;8.50;;;4.60;;
75246;SDS011;63844;50.042;19.224;2023-06-14T00:12:09;10.60;;;4.80;;
75246;SDS011;63844;50.042;19.224;2023-06-14T00:14:35;7.30;;;4.20;;
75246;SDS011;63844;50.042;19.224;2023-06-14T00:17:02;7.90;;;5.10;;
75246;SDS011;63844;50.042;19.224;2023-06-14T00:19:30;11.20;;;5.20;;
75246;SDS011;63844;50.042;19.224;2023-06-14T00:21:59;8.20;;;5.00;;
75246;SDS011;63844;50.042;19.224;2023-06-14T00:24:25;8.40;;;5.20;;
75246;SDS011;63844;50.042;19.224;2023-06-14T00:26:51;8.20;;;4.70;;
75246;SDS011;63844;50.042;19.224;2023-06-14T00:29:18;9.20;;;4.30;;
75246;SDS011;63844;50.042;19.224;2023-06-14T00:31:44;9.60;;;4.30;;
75246;SDS011;63844;50.042;19.224;2023-06-14T00:34:11;6.80;;;3.70;;
75246;SDS011;63844;50.042;19.224;2023-06-14T00:36:37;8.90;;;4.70;;
75246;SDS011;63844;50.042;19.224;2023-06-14T00:39:04;9.20;;;5.00;;
75246;SDS011;63844;50.042;19.224;2023-06-14T00:41:30;7.20;;;4.50;;
75246;SDS011;63844;50.042;19.224;2023-06-14T00:43:56;6.50;;;3.60;;
75246;SDS011;63844;50.042;19.224;2023-06-14T00:46:23;8.60;;;4.70;;
75246;SDS011;63844;50.042;19.224;2023-06-14T00:48:49;10.80;;;5.10;;
75246;SDS011;63844;50.042;19.224;2023-06-14T00:51:16;7.80;;;4.90;;
75246;SDS011;63844;50.042;19.224;2023-06-14T00:53:43;9.40;;;5.10;;
75246;SDS011;63844;50.042;19.224;2023-06-14T00:56:13;7.90;;;4.70;;
75246;SDS011;63844;50.042;19.224;2023-06-14T00:58:41;10.90;;;5.90;;
75246;SDS011;63844;50.042;19.224;2023-06-14T01:01:08;11.30;;;6.10;;
75246;SDS011;63844;50.042;19.224;2023-06-14T01:03:35;9.20;;;5.60;;
75246;SDS011;63844;50.042;19.224;2023-06-14T01:06:05;8.90;;;5.50;;
75246;SDS011;63844;50.042;19.224;2023-06-14T01:08:50;12.00;;;6.40;;
75246;SDS011;63844;50.042;19.224;2023-06-14T01:11:24;11.20;;;6.20;;
75246;SDS011;63844;50.042;19.224;2023-06-14T01:13:55;7.00;;;4.70;;
75246;SDS011;63844;50.042;19.224;2023-06-14T01:16:23;10.80;;;6.00;;
75246;SDS011;63844;50.042;19.224;2023-06-14T01:18:52;12.50;;;6.00;;
75246;SDS011;63844;50.042;19.224;2023-06-14T01:21:22;12.40;;;6.40;;
75246;SDS011;63844;50.042;19.224;2023-06-14T01:23:50;9.70;;;5.00;;
75246;SDS011;63844;50.042;19.224;2023-06-14T01:26:21;9.60;;;6.30;;
75246;SDS011;63844;50.042;19.224;2023-06-14T01:28:48;10.30;;;5.40;;
75246;SDS011;63844;50.042;19.224;2023-06-14T01:31:17;10.40;;;5.50;;
75246;SDS011;63844;50.042;19.224;2023-06-14T01:33:45;10.90;;;5.30;;
75246;SDS011;63844;50.042;19.224;2023-06-14T01:36:12;9.80;;;5.40;;
75246;SDS011;63844;50.042;19.224;2023-06-14T01:38:40;11.50;;;6.30;;
75246;SDS011;63844;50.042;19.224;2023-06-14T01:41:09;9.20;;;5.20;;
75246;SDS011;63844;50.042;19.224;2023-06-14T01:43:36;8.60;;;5.00;;
75246;SDS011;63844;50.042;19.224;2023-06-14T01:46:04;10.00;;;6.20;;
75246;SDS011;63844;50.042;19.224;2023-06-14T01:48:32;10.00;;;6.10;;
75246;SDS011;63844;50.042;19.224;2023-06-14T01:50:59;11.80;;;5.50;;
75246;SDS011;63844;50.042;19.224;2023-06-14T01:53:25;11.80;;;6.40;;
75246;SDS011;63844;50.042;19.224;2023-06-14T01:55:51;12.40;;;6.90;;
75246;SDS011;63844;50.042;19.224;2023-06-14T01:58:20;15.80;;;8.50;;
75246;SDS011;63844;50.042;19.224;2023-06-14T02:03:13;15.70;;;8.50;;
75246;SDS011;63844;50.042;19.224;2023-06-14T02:05:41;17.10;;;8.60;;
75246;SDS011;63844;50.042;19.224;2023-06-14T02:08:07;14.60;;;7.90;;
75246;SDS011;63844;50.042;19.224;2023-06-14T02:10:34;15.70;;;8.10;;
75246;SDS011;63844;50.042;19.224;2023-06-14T02:13:00;11.40;;;6.10;;
75246;SDS011;63844;50.042;19.224;2023-06-14T02:15:27;12.90;;;7.50;;
75246;SDS011;63844;50.042;19.224;2023-06-14T02:18:00;13.10;;;6.90;;
75246;SDS011;63844;50.042;19.224;2023-06-14T02:20:28;12.00;;;6.10;;
75246;SDS011;63844;50.042;19.224;2023-06-14T02:22:55;12.40;;;6.10;;
75246;SDS011;63844;50.042;19.224;2023-06-14T02:25:21;9.30;;;5.50;;
75246;SDS011;63844;50.042;19.224;2023-06-14T02:27:48;10.80;;;6.20;;
75246;SDS011;63844;50.042;19.224;2023-06-14T02:30:14;12.00;;;6.00;;
75246;SDS011;63844;50.042;19.224;2023-06-14T02:32:42;11.20;;;5.30;;
75246;SDS011;63844;50.042;19.224;2023-06-14T02:35:09;11.40;;;5.90;;
75246;SDS011;63844;50.042;19.224;2023-06-14T02:37:36;9.70;;;5.60;;
75246;SDS011;63844;50.042;19.224;2023-06-14T02:40:02;11.70;;;5.50;;
75246;SDS011;63844;50.042;19.224;2023-06-14T02:42:29;8.50;;;4.70;;
75246;SDS011;63844;50.042;19.224;2023-06-14T02:44:56;9.80;;;5.60;;
75246;SDS011;63844;50.042;19.224;2023-06-14T02:47:23;8.50;;;4.90;;
75246;SDS011;63844;50.042;19.224;2023-06-14T02:49:50;10.60;;;5.80;;
75246;SDS011;63844;50.042;19.224;2023-06-14T02:52:17;8.60;;;4.80;;
75246;SDS011;63844;50.042;19.224;2023-06-14T02:54:43;10.60;;;5.80;;
75246;SDS011;63844;50.042;19.224;2023-06-14T02:59:36;8.60;;;4.70;;
75246;SDS011;63844;50.042;19.224;2023-06-14T03:02:03;8.40;;;5.20;;
75246;SDS011;63844;50.042;19.224;2023-06-14T03:04:30;11.40;;;5.60;;
75246;SDS011;63844;50.042;19.224;2023-06-14T03:07:01;8.80;;;5.10;;
75246;SDS011;63844;50.042;19.224;2023-06-14T03:09:28;10.10;;;5.50;;
75246;SDS011;63844;50.042;19.224;2023-06-14T03:11:55;10.50;;;5.60;;
75246;SDS011;63844;50.042;19.224;2023-06-14T03:14:22;12.00;;;5.40;;
75246;SDS011;63844;50.042;19.224;2023-06-14T03:16:48;13.10;;;6.30;;
75246;SDS011;63844;50.042;19.224;2023-06-14T03:19:16;9.40;;;5.30;;
75246;SDS011;63844;50.042;19.224;2023-06-14T03:21:43;12.80;;;6.30;;
75246;SDS011;63844;50.042;19.224;2023-06-14T03:24:10;10.40;;;5.80;;
75246;SDS011;63844;50.042;19.224;2023-06-14T03:26:37;12.00;;;6.30;;
75246;SDS011;63844;50.042;19.224;2023-06-14T03:29:04;11.90;;;6.50;;
75246;SDS011;63844;50.042;19.224;2023-06-14T03:31:30;9.60;;;6.00;;
75246;SDS011;63844;50.042;19.224;2023-06-14T03:33:59;12.60;;;7.00;;
75246;SDS011;63844;50.042;19.224;2023-06-14T03:36:26;12.40;;;6.00;;
75246;SDS011;63844;50.042;19.224;2023-06-14T03:38:54;11.90;;;6.00;;
75246;SDS011;63844;50.042;19.224;2023-06-14T03:41:21;10.90;;;5.70;;
75246;SDS011;63844;50.042;19.224;2023-06-14T03:43:47;8.90;;;5.70;;
75246;SDS011;63844;50.042;19.224;2023-06-14T03:46:14;11.30;;;6.70;;
75246;SDS011;63844;50.042;19.224;2023-06-14T03:48:40;11.30;;;6.40;;
75246;SDS011;63844;50.042;19.224;2023-06-14T03:51:07;9.80;;;5.70;;
75246;SDS011;63844;50.042;19.224;2023-06-14T03:53:33;12.10;;;6.80;;
75246;SDS011;63844;50.042;19.224;2023-06-14T03:56:02;11.50;;;6.20;;
75246;SDS011;63844;50.042;19.224;2023-06-14T04:00:55;10.50;;;5.70;;
75246;SDS011;63844;50.042;19.224;2023-06-14T04:03:21;11.40;;;6.30;;
75246;SDS011;63844;50.042;19.224;2023-06-14T04:05:51;12.10;;;6.50;;
75246;SDS011;63844;50.042;19.224;2023-06-14T04:08:21;8.80;;;5.60;;
75246;SDS011;63844;50.042;19.224;2023-06-14T04:10:48;11.70;;;6.30;;
75246;SDS011;63844;50.042;19.224;2023-06-14T04:13:14;9.50;;;5.40;;
75246;SDS011;63844;50.042;19.224;2023-06-14T04:15:41;9.20;;;5.50;;
75246;SDS011;63844;50.042;19.224;2023-06-14T04:18:12;11.30;;;6.00;;
75246;SDS011;63844;50.042;19.224;2023-06-14T04:20:39;10.80;;;5.50;;
75246;SDS011;63844;50.042;19.224;2023-06-14T04:23:15;11.00;;;6.90;;
75246;SDS011;63844;50.042;19.224;2023-06-14T04:25:47;10.80;;;5.70;;
75246;SDS011;63844;50.042;19.224;2023-06-14T04:28:15;11.30;;;6.70;;
75246;SDS011;63844;50.042;19.224;2023-06-14T04:30:43;11.30;;;6.30;;
75246;SDS011;63844;50.042;19.224;2023-06-14T04:33:10;13.80;;;5.90;;
75246;SDS011;63844;50.042;19.224;2023-06-14T04:35:37;11.40;;;6.20;;
75246;SDS011;63844;50.042;19.224;2023-06-14T04:38:03;10.60;;;6.30;;
75246;SDS011;63844;50.042;19.224;2023-06-14T04:40:36;11.30;;;6.40;;
75246;SDS011;63844;50.042;19.224;2023-06-14T04:43:09;8.60;;;4.80;;
75246;SDS011;63844;50.042;19.224;2023-06-14T04:45:38;12.00;;;6.50;;
75246;SDS011;63844;50.042;19.224;2023-06-14T04:48:06;13.80;;;6.20;;
75246;SDS011;63844;50.042;19.224;2023-06-14T04:50:32;10.20;;;5.60;;
75246;SDS011;63844;50.042;19.224;2023-06-14T04:52:59;11.90;;;5.90;;
75246;SDS011;63844;50.042;19.224;2023-06-14T04:55:26;11.90;;;7.20;;
75246;SDS011;63844;50.042;19.224;2023-06-14T04:57:52;10.70;;;5.80;;
75246;SDS011;63844;50.042;19.224;2023-06-14T05:00:21;13.00;;;6.90;;
75246;SDS011;63844;50.042;19.224;2023-06-14T05:02:49;12.90;;;5.80;;
75246;SDS011;63844;50.042;19.224;2023-06-14T05:05:17;13.40;;;7.00;;
75246;SDS011;63844;50.042;19.224;2023-06-14T05:07:43;10.50;;;6.10;;
75246;SDS011;63844;50.042;19.224;2023-06-14T05:10:10;14.30;;;7.00;;
75246;SDS011;63844;50.042;19.224;2023-06-14T05:12:37;13.80;;;6.80;;
75246;SDS011;63844;50.042;19.224;2023-06-14T05:15:03;13.50;;;7.00;;
75246;SDS011;63844;50.042;19.224;2023-06-14T05:17:30;15.10;;;7.10;;
75246;SDS011;63844;50.042;19.224;2023-06-14T05:19:57;16.10;;;7.70;;
75246;SDS011;63844;50.042;19.224;2023-06-14T05:22:23;12.80;;;6.20;;
75246;SDS011;63844;50.042;19.224;2023-06-14T05:24:50;11.60;;;6.50;;
75246;SDS011;63844;50.042;19.224;2023-06-14T05:27:17;11.90;;;6.50;;
75246;SDS011;63844;50.042;19.224;2023-06-14T05:29:43;13.60;;;6.80;;
75246;SDS011;63844;50.042;19.224;2023-06-14T05:32:09;12.90;;;6.30;;
75246;SDS011;63844;50.042;19.224;2023-06-14T05:37:02;12.10;;;6.10;;
75246;SDS011;63844;50.042;19.224;2023-06-14T05:39:30;14.80;;;7.00;;
75246;SDS011;63844;50.042;19.224;2023-06-14T05:41:56;10.50;;;5.70;;
75246;SDS011;63844;50.042;19.224;2023-06-14T05:44:23;9.60;;;4.50;;
75246;SDS011;63844;50.042;19.224;2023-06-14T05:49:16;10.10;;;4.70;;
75246;SDS011;63844;50.042;19.224;2023-06-14T05:51:42;7.90;;;4.10;;
75246;SDS011;63844;50.042;19.224;2023-06-14T05:54:08;8.10;;;4.20;;
75246;SDS011;63844;50.042;19.224;2023-06-14T05:59:01;7.50;;;3.90;;
75246;SDS011;63844;50.042;19.224;2023-06-14T06:01:28;9.20;;;4.80;;
75246;SDS011;63844;50.042;19.224;2023-06-14T06:03:54;8.70;;;3.60;;
75246;SDS011;63844;50.042;19.224;2023-06-14T06:08:47;7.30;;;3.50;;
75246;SDS011;63844;50.042;19.224;2023-06-14T06:13:40;8.20;;;4.30;;
75246;SDS011;63844;50.042;19.224;2023-06-14T06:16:07;8.30;;;4.50;;
75246;SDS011;63844;50.042;19.224;2023-06-14T06:18:34;8.70;;;5.00;;
75246;SDS011;63844;50.042;19.224;2023-06-14T06:23:27;8.40;;;4.00;;
75246;SDS011;63844;50.042;19.224;2023-06-14T06:25:53;6.80;;;3.70;;
75246;SDS011;63844;50.042;19.224;2023-06-14T06:28:20;7.60;;;3.50;;
75246;SDS011;63844;50.042;19.224;2023-06-14T06:30:46;5.90;;;3.00;;
75246;SDS011;63844;50.042;19.224;2023-06-14T06:33:13;6.20;;;3.20;;
75246;SDS011;63844;50.042;19.224;2023-06-14T06:35:40;5.30;;;2.80;;
75246;SDS011;63844;50.042;19.224;2023-06-14T06:38:06;6.50;;;3.70;;
75246;SDS011;63844;50.042;19.224;2023-06-14T06:40:33;5.70;;;3.50;;
75246;SDS011;63844;50.042;19.224;2023-06-14T06:42:59;10.20;;;4.50;;
75246;SDS011;63844;50.042;19.224;2023-06-14T06:45:26;6.70;;;3.90;;
75246;SDS011;63844;50.042;19.224;2023-06-14T06:50:19;11.60;;;4.00;;
75246;SDS011;63844;50.042;19.224;2023-06-14T06:52:46;9.30;;;4.70;;
75246;SDS011;63844;50.042;19.224;2023-06-14T06:55:12;8.50;;;4.60;;
75246;SDS011;63844;50.042;19.224;2023-06-14T06:57:39;6.20;;;3.90;;
75246;SDS011;63844;50.042;19.224;2023-06-14T07:02:36;12.10;;;5.30;;
75246;SDS011;63844;50.042;19.224;2023-06-14T07:05:03;8.80;;;4.80;;
75246;SDS011;63844;50.042;19.224;2023-06-14T07:07:30;9.90;;;5.60;;
75246;SDS011;63844;50.042;19.224;2023-06-14T07:09:56;9.90;;;5.20;;
75246;SDS011;63844;50.042;19.224;2023-06-14T07:12:23;13.50;;;5.40;;
75246;SDS011;63844;50.042;19.224;2023-06-14T07:14:50;10.90;;;6.00;;
75246;SDS011;63844;50.042;19.224;2023-06-14T07:17:16;10.00;;;4.20;;
75246;SDS011;63844;50.042;19.224;2023-06-14T07:19:42;9.30;;;4.60;;
75246;SDS011;63844;50.042;19.224;2023-06-14T07:24:35;6.80;;;3.60;;
75246;SDS011;63844;50.042;19.224;2023-06-14T07:27:02;10.80;;;4.70;;
75246;SDS011;63844;50.042;19.224;2023-06-14T07:29:30;8.20;;;4.90;;
75246;SDS011;63844;50.042;19.224;2023-06-14T07:31:56;7.70;;;4.10;;
75246;SDS011;63844;50.042;19.224;2023-06-14T07:34:23;9.10;;;4.70;;
75246;SDS011;63844;50.042;19.224;2023-06-14T07:36:49;5.80;;;3.40;;
75246;SDS011;63844;50.042;19.224;2023-06-14T07:41:43;8.20;;;4.10;;
75246;SDS011;63844;50.042;19.224;2023-06-14T07:44:09;6.40;;;3.90;;
75246;SDS011;63844;50.042;19.224;2023-06-14T07:46:36;7.00;;;3.50;;
75246;SDS011;63844;50.042;19.224;2023-06-14T07:49:03;5.50;;;3.50;;
75246;SDS011;63844;50.042;19.224;2023-06-14T07:51:30;5.50;;;3.30;;
75246;SDS011;63844;50.042;19.224;2023-06-14T07:53:56;6.70;;;4.10;;
75246;SDS011;63844;50.042;19.224;2023-06-14T07:56:27;7.40;;;4.10;;
75246;SDS011;63844;50.042;19.224;2023-06-14T08:01:20;7.90;;;4.20;;
75246;SDS011;63844;50.042;19.224;2023-06-14T08:06:13;10.00;;;4.90;;
75246;SDS011;63844;50.042;19.224;2023-06-14T08:08:39;9.00;;;4.70;;
75246;SDS011;63844;50.042;19.224;2023-06-14T08:11:05;6.90;;;4.20;;
75246;SDS011;63844;50.042;19.224;2023-06-14T08:13:32;6.80;;;3.60;;
75246;SDS011;63844;50.042;19.224;2023-06-14T08:18:27;6.60;;;3.40;;
75246;SDS011;63844;50.042;19.224;2023-06-14T08:20:54;5.50;;;3.40;;
75246;SDS011;63844;50.042;19.224;2023-06-14T08:23:20;5.90;;;3.60;;
75246;SDS011;63844;50.042;19.224;2023-06-14T08:25:47;6.40;;;3.70;;
75246;SDS011;63844;50.042;19.224;2023-06-14T08:28:14;6.70;;;3.50;;
75246;SDS011;63844;50.042;19.224;2023-06-14T08:30:41;6.10;;;3.20;;
75246;SDS011;63844;50.042;19.224;2023-06-14T08:33:08;4.60;;;3.30;;
75246;SDS011;63844;50.042;19.224;2023-06-14T08:38:05;5.60;;;3.60;;
75246;SDS011;63844;50.042;19.224;2023-06-14T08:40:32;7.80;;;3.50;;
75246;SDS011;63844;50.042;19.224;2023-06-14T08:43:03;6.30;;;3.70;;
75246;SDS011;63844;50.042;19.224;2023-06-14T08:45:30;6.10;;;3.40;;
75246;SDS011;63844;50.042;19.224;2023-06-14T08:50:26;5.40;;;3.70;;
75246;SDS011;63844;50.042;19.224;2023-06-14T08:52:57;6.90;;;3.50;;
75246;SDS011;63844;50.042;19.224;2023-06-14T08:57:56;6.10;;;4.30;;
75246;SDS011;63844;50.042;19.224;2023-06-14T09:00:25;6.50;;;4.40;;
75246;SDS011;63844;50.042;19.224;2023-06-14T09:02:53;8.30;;;4.70;;
75246;SDS011;63844;50.042;19.224;2023-06-14T09:07:53;9.60;;;5.70;;
75246;SDS011;63844;50.042;19.224;2023-06-14T09:10:21;10.10;;;5.50;;
75246;SDS011;63844;50.042;19.224;2023-06-14T09:12:48;7.60;;;5.60;;
75246;SDS011;63844;50.042;19.224;2023-06-14T09:17:42;10.40;;;6.20;;
75246;SDS011;63844;50.042;19.224;2023-06-14T09:20:09;10.40;;;6.30;;
75246;SDS011;63844;50.042;19.224;2023-06-14T09:22:37;13.60;;;6.90;;
75246;SDS011;63844;50.042;19.224;2023-06-14T09:25:04;15.60;;;7.80;;
75246;SDS011;63844;50.042;19.224;2023-06-14T09:27:32;11.40;;;6.50;;
75246;SDS011;63844;50.042;19.224;2023-06-14T09:29:59;11.10;;;6.50;;
75246;SDS011;63844;50.042;19.224;2023-06-14T09:32:25;11.20;;;6.40;;
75246;SDS011;63844;50.042;19.224;2023-06-14T09:37:31;12.70;;;6.50;;
75246;SDS011;63844;50.042;19.224;2023-06-14T09:39:59;10.50;;;5.50;;
75246;SDS011;63844;50.042;19.224;2023-06-14T09:42:26;10.30;;;6.20;;
75246;SDS011;63844;50.042;19.224;2023-06-14T09:44:55;9.20;;;5.50;;
75246;SDS011;63844;50.042;19.224;2023-06-14T09:47:23;10.60;;;5.20;;
75246;SDS011;63844;50.042;19.224;2023-06-14T09:49:50;8.10;;;5.10;;
75246;SDS011;63844;50.042;19.224;2023-06-14T09:52:18;8.50;;;5.40;;
75246;SDS011;63844;50.042;19.224;2023-06-14T09:54:46;12.00;;;6.10;;
75246;SDS011;63844;50.042;19.224;2023-06-14T09:57:20;8.70;;;5.20;;
75246;SDS011;63844;50.042;19.224;2023-06-14T09:59:49;11.40;;;5.70;;
75246;SDS011;63844;50.042;19.224;2023-06-14T10:02:26;8.70;;;4.60;;
75246;SDS011;63844;50.042;19.224;2023-06-14T10:04:56;11.10;;;6.00;;
75246;SDS011;63844;50.042;19.224;2023-06-14T10:07:27;8.60;;;5.30;;
75246;SDS011;63844;50.042;19.224;2023-06-14T10:09:58;8.90;;;4.50;;
75246;SDS011;63844;50.042;19.224;2023-06-14T10:14:51;5.60;;;3.60;;
75246;SDS011;63844;50.042;19.224;2023-06-14T10:17:25;3.50;;;2.90;;
75246;SDS011;63844;50.042;19.224;2023-06-14T10:20:06;3.70;;;3.00;;
75246;SDS011;63844;50.042;19.224;2023-06-14T10:22:49;3.40;;;3.10;;
75246;SDS011;63844;50.042;19.224;2023-06-14T10:25:26;4.20;;;2.90;;
75246;SDS011;63844;50.042;19.224;2023-06-14T10:33:50;3.80;;;2.00;;
75246;SDS011;63844;50.042;19.224;2023-06-14T10:38:56;2.40;;;2.00;;
75246;SDS011;63844;50.042;19.224;2023-06-14T10:41:24;1.80;;;1.70;;
75246;SDS011;63844;50.042;19.224;2023-06-14T10:46:39;3.00;;;1.40;;
75246;SDS011;63844;50.042;19.224;2023-06-14T10:49:07;2.20;;;1.70;;
75246;SDS011;63844;50.042;19.224;2023-06-14T10:51:39;1.30;;;1.20;;
75246;SDS011;63844;50.042;19.224;2023-06-14T10:54:13;1.10;;;1.00;;
75246;SDS011;63844;50.042;19.224;2023-06-14T10:56:46;2.50;;;1.10;;
75246;SDS011;63844;50.042;19.224;2023-06-14T10:59:17;2.00;;;1.10;;
75246;SDS011;63844;50.042;19.224;2023-06-14T11:01:56;1.30;;;0.90;;
75246;SDS011;63844;50.042;19.224;2023-06-14T11:04:46;1.30;;;1.00;;
75246;SDS011;63844;50.042;19.224;2023-06-14T11:07:30;1.90;;;1.40;;
75246;SDS011;63844;50.042;19.224;2023-06-14T11:12:26;1.40;;;1.20;;
75246;SDS011;63844;50.042;19.224;2023-06-14T11:14:55;1.20;;;1.10;;
75246;SDS011;63844;50.042;19.224;2023-06-14T11:17:22;1.70;;;1.60;;
75246;SDS011;63844;50.042;19.224;2023-06-14T11:19:48;1.60;;;1.50;;
75246;SDS011;63844;50.042;19.224;2023-06-14T11:22:15;1.80;;;1.70;;
75246;SDS011;63844;50.042;19.224;2023-06-14T11:24:42;1.70;;;1.50;;
75246;SDS011;63844;50.042;19.224;2023-06-14T11:27:09;1.60;;;1.50;;
75246;SDS011;63844;50.042;19.224;2023-06-14T11:29:35;1.90;;;1.70;;
75246;SDS011;63844;50.042;19.224;2023-06-14T11:32:02;1.50;;;1.40;;
75246;SDS011;63844;50.042;19.224;2023-06-14T11:34:29;2.00;;;1.70;;
75246;SDS011;63844;50.042;19.224;2023-06-14T11:36:55;1.80;;;1.50;;
75246;SDS011;63844;50.042;19.224;2023-06-14T11:39:24;1.70;;;1.60;;
75246;SDS011;63844;50.042;19.224;2023-06-14T11:41:51;1.40;;;1.30;;
75246;SDS011;63844;50.042;19.224;2023-06-14T11:44:17;1.80;;;1.40;;
75246;SDS011;63844;50.042;19.224;2023-06-14T11:46:44;2.30;;;1.60;;
75246;SDS011;63844;50.042;19.224;2023-06-14T11:49:10;2.30;;;1.70;;
75246;SDS011;63844;50.042;19.224;2023-06-14T11:51:37;1.50;;;1.40;;
75246;SDS011;63844;50.042;19.224;2023-06-14T11:54:04;1.30;;;1.20;;
75246;SDS011;63844;50.042;19.224;2023-06-14T11:56:31;1.90;;;0.90;;
75246;SDS011;63844;50.042;19.224;2023-06-14T11:59:05;2.10;;;1.60;;
75246;SDS011;63844;50.042;19.224;2023-06-14T12:01:35;1.70;;;1.50;;
75246;SDS011;63844;50.042;19.224;2023-06-14T12:04:07;1.20;;;0.80;;
75246;SDS011;63844;50.042;19.224;2023-06-14T12:06:36;1.20;;;1.10;;
75246;SDS011;63844;50.042;19.224;2023-06-14T12:09:06;1.40;;;1.30;;
75246;SDS011;63844;50.042;19.224;2023-06-14T12:11:38;2.00;;;1.40;;
75246;SDS011;63844;50.042;19.224;2023-06-14T12:14:05;2.30;;;1.40;;
75246;SDS011;63844;50.042;19.224;2023-06-14T12:16:33;1.60;;;1.40;;
75246;SDS011;63844;50.042;19.224;2023-06-14T12:19:08;1.30;;;1.20;;
75246;SDS011;63844;50.042;19.224;2023-06-14T12:21:38;2.20;;;1.60;;
75246;SDS011;63844;50.042;19.224;2023-06-14T12:24:07;3.00;;;1.20;;
75246;SDS011;63844;50.042;19.224;2023-06-14T12:26:37;2.30;;;1.00;;
75246;SDS011;63844;50.042;19.224;2023-06-14T12:29:04;1.20;;;1.00;;
75246;SDS011;63844;50.042;19.224;2023-06-14T12:31:32;1.10;;;0.90;;
75246;SDS011;63844;50.042;19.224;2023-06-14T12:33:58;1.00;;;0.90;;
75246;SDS011;63844;50.042;19.224;2023-06-14T12:36:25;1.50;;;1.40;;
75246;SDS011;63844;50.042;19.224;2023-06-14T12:38:58;1.40;;;1.30;;
75246;SDS011;63844;50.042;19.224;2023-06-14T12:41:25;1.60;;;1.20;;
75246;SDS011;63844;50.042;19.224;2023-06-14T12:43:53;1.10;;;1.00;;
75246;SDS011;63844;50.042;19.224;2023-06-14T12:46:20;1.50;;;1.40;;
75246;SDS011;63844;50.042;19.224;2023-06-14T12:48:47;2.10;;;1.60;;
75246;SDS011;63844;50.042;19.224;2023-06-14T12:51:13;2.10;;;1.60;;
75246;SDS011;63844;50.042;19.224;2023-06-14T12:53:40;2.90;;;1.90;;
75246;SDS011;63844;50.042;19.224;2023-06-14T12:56:07;2.00;;;1.80;;
75246;SDS011;63844;50.042;19.224;2023-06-14T12:58:33;1.90;;;1.70;;
75246;SDS011;63844;50.042;19.224;2023-06-14T13:01:00;2.10;;;1.90;;
75246;SDS011;63844;50.042;19.224;2023-06-14T13:03:26;2.70;;;2.10;;
75246;SDS011;63844;50.042;19.224;2023-06-14T13:05:53;2.20;;;2.00;;
75246;SDS011;63844;50.042;19.224;2023-06-14T13:08:19;2.50;;;1.40;;
75246;SDS011;63844;50.042;19.224;2023-06-14T13:10:46;2.10;;;1.70;;
75246;SDS011;63844;50.042;19.224;2023-06-14T13:13:12;2.60;;;1.60;;
75246;SDS011;63844;50.042;19.224;2023-06-14T13:15:39;2.30;;;1.90;;
75246;SDS011;63844;50.042;19.224;2023-06-14T13:18:06;2.50;;;1.80;;
75246;SDS011;63844;50.042;19.224;2023-06-14T13:20:32;2.20;;;2.00;;
75246;SDS011;63844;50.042;19.224;2023-06-14T13:22:59;3.30;;;2.20;;
75246;SDS011;63844;50.042;19.224;2023-06-14T13:25:26;2.10;;;1.70;;
75246;SDS011;63844;50.042;19.224;2023-06-14T13:27:52;2.50;;;2.00;;
75246;SDS011;63844;50.042;19.224;2023-06-14T13:30:18;2.10;;;1.60;;
75246;SDS011;63844;50.042;19.224;2023-06-14T13:32:45;14.50;;;2.30;;
75246;SDS011;63844;50.042;19.224;2023-06-14T13:35:11;2.10;;;1.80;;
75246;SDS011;63844;50.042;19.224;2023-06-14T13:37:38;1.60;;;1.50;;
75246;SDS011;63844;50.042;19.224;2023-06-14T13:40:05;4.40;;;1.70;;
75246;SDS011;63844;50.042;19.224;2023-06-14T13:42:32;1.80;;;1.50;;
75246;SDS011;63844;50.042;19.224;2023-06-14T13:44:59;1.70;;;1.30;;
75246;SDS011;63844;50.042;19.224;2023-06-14T13:47:25;1.20;;;1.10;;
75246;SDS011;63844;50.042;19.224;2023-06-14T13:49:52;2.10;;;1.20;;
75246;SDS011;63844;50.042;19.224;2023-06-14T13:52:18;2.10;;;1.40;;
75246;SDS011;63844;50.042;19.224;2023-06-14T13:54:45;1.70;;;1.20;;
75246;SDS011;63844;50.042;19.224;2023-06-14T13:57:12;1.10;;;1.00;;
75246;SDS011;63844;50.042;19.224;2023-06-14T13:59:41;1.90;;;1.40;;
75246;SDS011;63844;50.042;19.224;2023-06-14T14:02:10;1.80;;;1.40;;
75246;SDS011;63844;50.042;19.224;2023-06-14T14:04:37;1.80;;;1.30;;
75246;SDS011;63844;50.042;19.224;2023-06-14T14:07:05;1.80;;;1.70;;
75246;SDS011;63844;50.042;19.224;2023-06-14T14:09:32;2.60;;;1.50;;
75246;SDS011;63844;50.042;19.224;2023-06-14T14:12:00;2.40;;;1.70;;
75246;SDS011;63844;50.042;19.224;2023-06-14T14:14:33;2.90;;;1.70;;
75246;SDS011;63844;50.042;19.224;2023-06-14T14:17:00;2.20;;;1.60;;
75246;SDS011;63844;50.042;19.224;2023-06-14T14:19:27;2.50;;;1.80;;
75246;SDS011;63844;50.042;19.224;2023-06-14T14:21:53;2.30;;;2.00;;
75246;SDS011;63844;50.042;19.224;2023-06-14T14:24:19;2.80;;;2.10;;
75246;SDS011;63844;50.042;19.224;2023-06-14T14:26:46;2.80;;;2.50;;
75246;SDS011;63844;50.042;19.224;2023-06-14T14:29:16;3.50;;;2.60;;
75246;SDS011;63844;50.042;19.224;2023-06-14T14:31:43;2.70;;;2.10;;
75246;SDS011;63844;50.042;19.224;2023-06-14T14:34:09;4.30;;;2.30;;
75246;SDS011;63844;50.042;19.224;2023-06-14T14:36:36;3.30;;;2.00;;
75246;SDS011;63844;50.042;19.224;2023-06-14T14:39:04;2.80;;;2.40;;
75246;SDS011;63844;50.042;19.224;2023-06-14T14:41:30;2.50;;;1.90;;
75246;SDS011;63844;50.042;19.224;2023-06-14T14:43:57;3.50;;;2.10;;
75246;SDS011;63844;50.042;19.224;2023-06-14T14:46:24;2.20;;;1.80;;
75246;SDS011;63844;50.042;19.224;2023-06-14T14:48:51;2.30;;;1.80;;
75246;SDS011;63844;50.042;19.224;2023-06-14T14:51:17;2.20;;;1.70;;
75246;SDS011;63844;50.042;19.224;2023-06-14T14:53:44;1.80;;;1.50;;
75246;SDS011;63844;50.042;19.224;2023-06-14T14:56:10;9.30;;;1.80;;
75246;SDS011;63844;50.042;19.224;2023-06-14T14:58:38;1.70;;;1.40;;
75246;SDS011;63844;50.042;19.224;2023-06-14T15:01:04;2.00;;;1.30;;
75246;SDS011;63844;50.042;19.224;2023-06-14T15:03:32;1.80;;;1.50;;
75246;SDS011;63844;50.042;19.224;2023-06-14T15:05:58;2.80;;;1.60;;
75246;SDS011;63844;50.042;19.224;2023-06-14T15:08:25;3.00;;;1.80;;
75246;SDS011;63844;50.042;19.224;2023-06-14T15:10:51;3.00;;;2.00;;
75246;SDS011;63844;50.042;19.224;2023-06-14T15:13:17;2.60;;;1.40;;
75246;SDS011;63844;50.042;19.224;2023-06-14T15:15:44;3.50;;;2.00;;
75246;SDS011;63844;50.042;19.224;2023-06-14T15:18:11;2.10;;;1.80;;
75246;SDS011;63844;50.042;19.224;2023-06-14T15:20:37;3.00;;;2.40;;
75246;SDS011;63844;50.042;19.224;2023-06-14T15:23:04;3.40;;;2.20;;
75246;SDS011;63844;50.042;19.224;2023-06-14T15:25:30;2.50;;;2.20;;
75246;SDS011;63844;50.042;19.224;2023-06-14T15:27:59;3.30;;;2.80;;
75246;SDS011;63844;50.042;19.224;2023-06-14T15:30:25;3.10;;;2.80;;
75246;SDS011;63844;50.042;19.224;2023-06-14T15:32:52;4.30;;;2.60;;
75246;SDS011;63844;50.042;19.224;2023-06-14T15:35:18;3.60;;;2.60;;
75246;SDS011;63844;50.042;19.224;2023-06-14T15:37:46;3.00;;;2.70;;
75246;SDS011;63844;50.042;19.224;2023-06-14T15:40:13;3.70;;;2.90;;
75246;SDS011;63844;50.042;19.224;2023-06-14T15:42:41;3.00;;;2.60;;
75246;SDS011;63844;50.042;19.224;2023-06-14T15:45:08;2.90;;;2.40;;
75246;SDS011;63844;50.042;19.224;2023-06-14T15:47:35;4.20;;;2.60;;